sensor_id;sensor_type;location;lat;lon;timestamp;P1;durP1;ratioP1;P2;durP2;ratioP2
63050;SDS011;49136;47.416;19.402;2023-04-15T00:01:50;10.13;;;4.13;;
63050;SDS011;49136;47.416;19.402;2023-04-15T00:04:16;12.25;;;4.85;;
63050;SDS011;49136;47.416;19.402;2023-04-15T00:06:41;9.75;;;4.35;;
63050;SDS011;49136;47.416;19.402;2023-04-15T00:09:07;13.35;;;5.10;;
63050;SDS011;49136;47.416;19.402;2023-04-15T00:11:32;9.07;;;4.25;;
63050;SDS011;49136;47.416;19.402;2023-04-15T00:13:58;10.80;;;5.22;;
63050;SDS011;49136;47.416;19.402;2023-04-15T00:16:24;14.23;;;5.00;;
63050;SDS011;49136;47.416;19.402;2023-04-15T00:18:49;16.40;;;5.35;;
63050;SDS011;49136;47.416;19.402;2023-04-15T00:21:15;11.23;;;4.70;;
63050;SDS011;49136;47.416;19.402;2023-04-15T00:23:41;9.27;;;4.35;;
63050;SDS011;49136;47.416;19.402;2023-04-15T00:26:06;13.30;;;5.07;;
63050;SDS011;49136;47.416;19.402;2023-04-15T00:28:32;9.43;;;4.40;;
63050;SDS011;49136;47.416;19.402;2023-04-15T00:30:58;11.43;;;4.40;;
63050;SDS011;49136;47.416;19.402;2023-04-15T00:33:23;8.82;;;4.32;;
63050;SDS011;49136;47.416;19.402;2023-04-15T00:35:49;13.10;;;4.25;;
63050;SDS011;49136;47.416;19.402;2023-04-15T00:38:14;14.50;;;5.60;;
63050;SDS011;49136;47.416;19.402;2023-04-15T00:40:40;11.40;;;3.88;;
63050;SDS011;49136;47.416;19.402;2023-04-15T00:43:06;14.02;;;4.72;;
63050;SDS011;49136;47.416;19.402;2023-04-15T00:45:31;15.90;;;5.47;;
63050;SDS011;49136;47.416;19.402;2023-04-15T00:47:57;11.43;;;4.45;;
63050;SDS011;49136;47.416;19.402;2023-04-15T00:50:23;13.95;;;5.63;;
63050;SDS011;49136;47.416;19.402;2023-04-15T00:52:49;12.98;;;6.47;;
63050;SDS011;49136;47.416;19.402;2023-04-15T00:55:14;15.85;;;6.00;;
63050;SDS011;49136;47.416;19.402;2023-04-15T00:57:40;10.70;;;4.68;;
63050;SDS011;49136;47.416;19.402;2023-04-15T01:00:06;12.50;;;5.03;;
63050;SDS011;49136;47.416;19.402;2023-04-15T01:02:33;8.18;;;4.55;;
63050;SDS011;49136;47.416;19.402;2023-04-15T01:05:00;14.55;;;5.07;;
63050;SDS011;49136;47.416;19.402;2023-04-15T01:07:26;12.90;;;4.50;;
63050;SDS011;49136;47.416;19.402;2023-04-15T01:09:51;15.57;;;5.90;;
63050;SDS011;49136;47.416;19.402;2023-04-15T01:12:18;14.43;;;5.63;;
63050;SDS011;49136;47.416;19.402;2023-04-15T01:14:44;14.90;;;5.57;;
63050;SDS011;49136;47.416;19.402;2023-04-15T01:17:10;15.13;;;5.53;;
63050;SDS011;49136;47.416;19.402;2023-04-15T01:19:36;13.43;;;5.90;;
63050;SDS011;49136;47.416;19.402;2023-04-15T01:22:02;14.00;;;6.47;;
63050;SDS011;49136;47.416;19.402;2023-04-15T01:24:29;16.52;;;6.47;;
63050;SDS011;49136;47.416;19.402;2023-04-15T01:26:59;17.88;;;6.18;;
63050;SDS011;49136;47.416;19.402;2023-04-15T01:29:25;15.90;;;5.70;;
63050;SDS011;49136;47.416;19.402;2023-04-15T01:31:51;18.55;;;6.82;;
63050;SDS011;49136;47.416;19.402;2023-04-15T01:34:19;15.23;;;5.78;;
63050;SDS011;49136;47.416;19.402;2023-04-15T01:36:45;15.43;;;6.63;;
63050;SDS011;49136;47.416;19.402;2023-04-15T01:39:10;16.77;;;5.07;;
63050;SDS011;49136;47.416;19.402;2023-04-15T01:41:36;9.45;;;5.78;;
63050;SDS011;49136;47.416;19.402;2023-04-15T01:44:02;11.32;;;5.80;;
63050;SDS011;49136;47.416;19.402;2023-04-15T01:46:27;13.07;;;6.18;;
63050;SDS011;49136;47.416;19.402;2023-04-15T01:48:52;15.05;;;6.00;;
63050;SDS011;49136;47.416;19.402;2023-04-15T01:51:18;9.18;;;4.82;;
63050;SDS011;49136;47.416;19.402;2023-04-15T01:53:44;11.98;;;5.25;;
63050;SDS011;49136;47.416;19.402;2023-04-15T01:56:09;13.23;;;6.97;;
63050;SDS011;49136;47.416;19.402;2023-04-15T01:58:35;11.82;;;4.80;;
63050;SDS011;49136;47.416;19.402;2023-04-15T02:01:00;13.60;;;6.18;;
63050;SDS011;49136;47.416;19.402;2023-04-15T02:03:27;12.35;;;5.97;;
63050;SDS011;49136;47.416;19.402;2023-04-15T02:05:53;18.33;;;6.88;;
63050;SDS011;49136;47.416;19.402;2023-04-15T02:08:19;16.85;;;6.25;;
63050;SDS011;49136;47.416;19.402;2023-04-15T02:10:44;13.90;;;5.20;;
63050;SDS011;49136;47.416;19.402;2023-04-15T02:13:10;10.18;;;4.03;;
63050;SDS011;49136;47.416;19.402;2023-04-15T02:15:35;9.13;;;4.85;;
63050;SDS011;49136;47.416;19.402;2023-04-15T02:18:01;10.85;;;5.35;;
63050;SDS011;49136;47.416;19.402;2023-04-15T02:20:26;12.65;;;5.82;;
63050;SDS011;49136;47.416;19.402;2023-04-15T02:22:52;13.68;;;5.15;;
63050;SDS011;49136;47.416;19.402;2023-04-15T02:25:17;10.90;;;4.45;;
63050;SDS011;49136;47.416;19.402;2023-04-15T02:27:43;17.70;;;5.32;;
63050;SDS011;49136;47.416;19.402;2023-04-15T02:30:08;19.00;;;6.10;;
63050;SDS011;49136;47.416;19.402;2023-04-15T02:32:34;13.55;;;6.68;;
63050;SDS011;49136;47.416;19.402;2023-04-15T02:35:02;12.18;;;5.10;;
63050;SDS011;49136;47.416;19.402;2023-04-15T02:37:29;16.58;;;5.90;;
63050;SDS011;49136;47.416;19.402;2023-04-15T02:39:55;14.20;;;5.88;;
63050;SDS011;49136;47.416;19.402;2023-04-15T02:42:21;14.70;;;4.70;;
63050;SDS011;49136;47.416;19.402;2023-04-15T02:44:46;13.27;;;5.72;;
63050;SDS011;49136;47.416;19.402;2023-04-15T02:47:12;11.23;;;4.97;;
63050;SDS011;49136;47.416;19.402;2023-04-15T02:49:38;12.15;;;5.05;;
63050;SDS011;49136;47.416;19.402;2023-04-15T02:52:04;12.32;;;5.57;;
63050;SDS011;49136;47.416;19.402;2023-04-15T02:54:31;15.32;;;6.20;;
63050;SDS011;49136;47.416;19.402;2023-04-15T02:56:58;11.48;;;5.22;;
63050;SDS011;49136;47.416;19.402;2023-04-15T02:59:23;12.95;;;5.97;;
63050;SDS011;49136;47.416;19.402;2023-04-15T03:01:49;15.27;;;5.15;;
63050;SDS011;49136;47.416;19.402;2023-04-15T03:04:14;18.10;;;5.93;;
63050;SDS011;49136;47.416;19.402;2023-04-15T03:06:40;12.13;;;4.68;;
63050;SDS011;49136;47.416;19.402;2023-04-15T03:09:05;14.45;;;5.55;;
63050;SDS011;49136;47.416;19.402;2023-04-15T03:11:31;15.43;;;5.55;;
63050;SDS011;49136;47.416;19.402;2023-04-15T03:13:57;13.18;;;5.85;;
63050;SDS011;49136;47.416;19.402;2023-04-15T03:16:23;13.13;;;4.93;;
63050;SDS011;49136;47.416;19.402;2023-04-15T03:18:49;11.10;;;5.78;;
63050;SDS011;49136;47.416;19.402;2023-04-15T03:21:14;11.63;;;5.47;;
63050;SDS011;49136;47.416;19.402;2023-04-15T03:23:40;15.48;;;5.55;;
63050;SDS011;49136;47.416;19.402;2023-04-15T03:26:05;11.65;;;5.30;;
63050;SDS011;49136;47.416;19.402;2023-04-15T03:28:31;12.13;;;4.88;;
63050;SDS011;49136;47.416;19.402;2023-04-15T03:30:57;15.75;;;5.63;;
63050;SDS011;49136;47.416;19.402;2023-04-15T03:33:22;11.68;;;5.05;;
63050;SDS011;49136;47.416;19.402;2023-04-15T03:35:49;21.52;;;5.57;;
63050;SDS011;49136;47.416;19.402;2023-04-15T03:38:15;15.90;;;5.65;;
63050;SDS011;49136;47.416;19.402;2023-04-15T03:40:40;17.25;;;5.90;;
63050;SDS011;49136;47.416;19.402;2023-04-15T03:43:06;14.05;;;6.57;;
63050;SDS011;49136;47.416;19.402;2023-04-15T03:45:31;11.05;;;5.10;;
63050;SDS011;49136;47.416;19.402;2023-04-15T03:47:57;16.10;;;6.43;;
63050;SDS011;49136;47.416;19.402;2023-04-15T03:50:22;17.00;;;6.07;;
63050;SDS011;49136;47.416;19.402;2023-04-15T03:52:48;15.10;;;6.63;;
63050;SDS011;49136;47.416;19.402;2023-04-15T03:55:13;10.75;;;5.53;;
63050;SDS011;49136;47.416;19.402;2023-04-15T03:57:39;10.45;;;5.18;;
63050;SDS011;49136;47.416;19.402;2023-04-15T04:00:05;11.75;;;5.15;;
63050;SDS011;49136;47.416;19.402;2023-04-15T04:02:33;16.48;;;5.97;;
63050;SDS011;49136;47.416;19.402;2023-04-15T04:04:58;22.88;;;8.45;;
63050;SDS011;49136;47.416;19.402;2023-04-15T04:07:24;19.60;;;9.30;;
63050;SDS011;49136;47.416;19.402;2023-04-15T04:09:49;18.90;;;9.40;;
63050;SDS011;49136;47.416;19.402;2023-04-15T04:12:15;16.77;;;7.00;;
63050;SDS011;49136;47.416;19.402;2023-04-15T04:14:41;14.68;;;5.70;;
63050;SDS011;49136;47.416;19.402;2023-04-15T04:17:06;16.95;;;6.40;;
63050;SDS011;49136;47.416;19.402;2023-04-15T04:19:32;10.88;;;4.68;;
63050;SDS011;49136;47.416;19.402;2023-04-15T04:21:58;18.23;;;5.60;;
63050;SDS011;49136;47.416;19.402;2023-04-15T04:24:23;10.45;;;4.72;;
63050;SDS011;49136;47.416;19.402;2023-04-15T04:26:49;12.10;;;4.88;;
63050;SDS011;49136;47.416;19.402;2023-04-15T04:29:15;16.73;;;7.18;;
63050;SDS011;49136;47.416;19.402;2023-04-15T04:31:40;13.40;;;4.63;;
63050;SDS011;49136;47.416;19.402;2023-04-15T04:34:06;17.05;;;6.72;;
63050;SDS011;49136;47.416;19.402;2023-04-15T04:36:31;10.40;;;5.10;;
63050;SDS011;49136;47.416;19.402;2023-04-15T04:38:57;13.00;;;5.68;;
63050;SDS011;49136;47.416;19.402;2023-04-15T04:41:22;18.38;;;7.03;;
63050;SDS011;49136;47.416;19.402;2023-04-15T04:43:48;18.77;;;7.05;;
63050;SDS011;49136;47.416;19.402;2023-04-15T04:46:13;10.98;;;6.40;;
63050;SDS011;49136;47.416;19.402;2023-04-15T04:48:38;17.77;;;7.55;;
63050;SDS011;49136;47.416;19.402;2023-04-15T04:51:05;18.30;;;7.28;;
63050;SDS011;49136;47.416;19.402;2023-04-15T04:53:31;16.33;;;7.28;;
63050;SDS011;49136;47.416;19.402;2023-04-15T04:55:57;14.63;;;7.53;;
63050;SDS011;49136;47.416;19.402;2023-04-15T04:58:23;16.35;;;8.43;;
63050;SDS011;49136;47.416;19.402;2023-04-15T05:00:48;12.82;;;7.18;;
63050;SDS011;49136;47.416;19.402;2023-04-15T05:03:14;13.10;;;6.68;;
63050;SDS011;49136;47.416;19.402;2023-04-15T05:05:39;14.23;;;6.30;;
63050;SDS011;49136;47.416;19.402;2023-04-15T05:08:08;10.82;;;5.25;;
63050;SDS011;49136;47.416;19.402;2023-04-15T05:10:33;15.65;;;7.82;;
63050;SDS011;49136;47.416;19.402;2023-04-15T05:12:59;18.23;;;7.07;;
63050;SDS011;49136;47.416;19.402;2023-04-15T05:15:24;12.50;;;5.20;;
63050;SDS011;49136;47.416;19.402;2023-04-15T05:17:50;10.27;;;4.93;;
63050;SDS011;49136;47.416;19.402;2023-04-15T05:20:15;17.45;;;6.13;;
63050;SDS011;49136;47.416;19.402;2023-04-15T05:22:41;15.00;;;5.75;;
63050;SDS011;49136;47.416;19.402;2023-04-15T05:25:07;12.18;;;4.90;;
63050;SDS011;49136;47.416;19.402;2023-04-15T05:27:32;12.20;;;6.18;;
63050;SDS011;49136;47.416;19.402;2023-04-15T05:29:58;18.23;;;7.25;;
63050;SDS011;49136;47.416;19.402;2023-04-15T05:32:23;22.48;;;7.43;;
63050;SDS011;49136;47.416;19.402;2023-04-15T05:34:49;13.85;;;6.70;;
63050;SDS011;49136;47.416;19.402;2023-04-15T05:37:15;8.65;;;4.47;;
63050;SDS011;49136;47.416;19.402;2023-04-15T05:39:40;10.00;;;4.80;;
63050;SDS011;49136;47.416;19.402;2023-04-15T05:42:06;12.32;;;4.82;;
63050;SDS011;49136;47.416;19.402;2023-04-15T05:44:32;7.93;;;5.18;;
63050;SDS011;49136;47.416;19.402;2023-04-15T05:46:57;9.55;;;4.55;;
63050;SDS011;49136;47.416;19.402;2023-04-15T05:49:22;11.10;;;5.65;;
63050;SDS011;49136;47.416;19.402;2023-04-15T05:51:48;16.23;;;5.95;;
63050;SDS011;49136;47.416;19.402;2023-04-15T05:54:13;11.10;;;6.47;;
63050;SDS011;49136;47.416;19.402;2023-04-15T05:56:39;10.73;;;6.55;;
63050;SDS011;49136;47.416;19.402;2023-04-15T05:59:05;19.30;;;6.93;;
63050;SDS011;49136;47.416;19.402;2023-04-15T06:01:30;8.70;;;4.32;;
63050;SDS011;49136;47.416;19.402;2023-04-15T06:03:57;9.70;;;3.90;;
63050;SDS011;49136;47.416;19.402;2023-04-15T06:06:22;12.27;;;4.57;;
63050;SDS011;49136;47.416;19.402;2023-04-15T06:08:48;8.95;;;3.70;;
63050;SDS011;49136;47.416;19.402;2023-04-15T06:11:15;7.43;;;3.55;;
63050;SDS011;49136;47.416;19.402;2023-04-15T06:13:40;9.70;;;4.82;;
63050;SDS011;49136;47.416;19.402;2023-04-15T06:16:06;8.32;;;2.95;;
63050;SDS011;49136;47.416;19.402;2023-04-15T06:18:31;12.55;;;4.03;;
63050;SDS011;49136;47.416;19.402;2023-04-15T06:20:57;9.63;;;4.00;;
63050;SDS011;49136;47.416;19.402;2023-04-15T06:23:23;7.45;;;3.90;;
63050;SDS011;49136;47.416;19.402;2023-04-15T06:25:48;10.52;;;4.82;;
63050;SDS011;49136;47.416;19.402;2023-04-15T06:28:14;7.40;;;3.88;;
63050;SDS011;49136;47.416;19.402;2023-04-15T06:30:39;8.88;;;3.65;;
63050;SDS011;49136;47.416;19.402;2023-04-15T06:33:05;10.07;;;5.03;;
63050;SDS011;49136;47.416;19.402;2023-04-15T06:35:31;7.55;;;3.72;;
63050;SDS011;49136;47.416;19.402;2023-04-15T06:37:56;8.20;;;3.95;;
63050;SDS011;49136;47.416;19.402;2023-04-15T06:40:22;8.15;;;4.53;;
63050;SDS011;49136;47.416;19.402;2023-04-15T06:42:48;8.40;;;4.32;;
63050;SDS011;49136;47.416;19.402;2023-04-15T06:45:13;8.25;;;4.80;;
63050;SDS011;49136;47.416;19.402;2023-04-15T06:47:40;7.65;;;4.65;;
63050;SDS011;49136;47.416;19.402;2023-04-15T06:50:06;10.45;;;3.85;;
63050;SDS011;49136;47.416;19.402;2023-04-15T06:52:33;4.63;;;2.97;;
63050;SDS011;49136;47.416;19.402;2023-04-15T06:54:59;8.00;;;4.20;;
63050;SDS011;49136;47.416;19.402;2023-04-15T06:57:26;7.25;;;3.42;;
63050;SDS011;49136;47.416;19.402;2023-04-15T06:59:52;5.95;;;3.03;;
63050;SDS011;49136;47.416;19.402;2023-04-15T07:02:21;6.97;;;3.58;;
63050;SDS011;49136;47.416;19.402;2023-04-15T07:04:46;6.32;;;2.85;;
63050;SDS011;49136;47.416;19.402;2023-04-15T07:07:12;4.97;;;3.08;;
63050;SDS011;49136;47.416;19.402;2023-04-15T07:09:39;4.60;;;3.03;;
63050;SDS011;49136;47.416;19.402;2023-04-15T07:12:04;6.82;;;3.30;;
63050;SDS011;49136;47.416;19.402;2023-04-15T07:14:30;5.82;;;3.00;;
63050;SDS011;49136;47.416;19.402;2023-04-15T07:16:55;5.90;;;3.42;;
63050;SDS011;49136;47.416;19.402;2023-04-15T07:19:21;5.90;;;2.88;;
63050;SDS011;49136;47.416;19.402;2023-04-15T07:21:47;7.82;;;3.92;;
63050;SDS011;49136;47.416;19.402;2023-04-15T07:24:13;3.85;;;2.50;;
63050;SDS011;49136;47.416;19.402;2023-04-15T07:26:42;6.30;;;2.85;;
63050;SDS011;49136;47.416;19.402;2023-04-15T07:29:08;4.85;;;2.67;;
63050;SDS011;49136;47.416;19.402;2023-04-15T07:31:35;7.47;;;2.88;;
63050;SDS011;49136;47.416;19.402;2023-04-15T07:34:03;2.70;;;1.80;;
63050;SDS011;49136;47.416;19.402;2023-04-15T07:36:29;3.08;;;2.10;;
63050;SDS011;49136;47.416;19.402;2023-04-15T07:38:55;72.60;;;21.25;;
63050;SDS011;49136;47.416;19.402;2023-04-15T07:41:21;13.63;;;5.72;;
63050;SDS011;49136;47.416;19.402;2023-04-15T07:43:47;4.47;;;2.28;;
63050;SDS011;49136;47.416;19.402;2023-04-15T07:46:13;4.70;;;2.20;;
63050;SDS011;49136;47.416;19.402;2023-04-15T07:48:40;3.88;;;2.15;;
63050;SDS011;49136;47.416;19.402;2023-04-15T07:51:05;3.40;;;1.92;;
63050;SDS011;49136;47.416;19.402;2023-04-15T07:53:31;4.72;;;2.15;;
63050;SDS011;49136;47.416;19.402;2023-04-15T07:55:57;2.30;;;1.45;;
63050;SDS011;49136;47.416;19.402;2023-04-15T07:58:23;4.20;;;1.90;;
63050;SDS011;49136;47.416;19.402;2023-04-15T08:00:48;3.70;;;2.33;;
63050;SDS011;49136;47.416;19.402;2023-04-15T08:03:13;2.97;;;2.03;;
63050;SDS011;49136;47.416;19.402;2023-04-15T08:05:39;3.50;;;1.70;;
63050;SDS011;49136;47.416;19.402;2023-04-15T08:08:05;2.03;;;1.40;;
63050;SDS011;49136;47.416;19.402;2023-04-15T08:10:31;3.92;;;1.98;;
63050;SDS011;49136;47.416;19.402;2023-04-15T08:12:56;5.65;;;1.98;;
63050;SDS011;49136;47.416;19.402;2023-04-15T08:15:22;2.70;;;1.40;;
63050;SDS011;49136;47.416;19.402;2023-04-15T08:17:48;1.48;;;1.10;;
63050;SDS011;49136;47.416;19.402;2023-04-15T08:20:13;1.80;;;1.13;;
63050;SDS011;49136;47.416;19.402;2023-04-15T08:22:39;2.20;;;1.35;;
63050;SDS011;49136;47.416;19.402;2023-04-15T08:25:06;2.08;;;1.15;;
63050;SDS011;49136;47.416;19.402;2023-04-15T08:27:33;3.20;;;1.10;;
63050;SDS011;49136;47.416;19.402;2023-04-15T08:29:58;1.38;;;0.88;;
63050;SDS011;49136;47.416;19.402;2023-04-15T08:32:24;3.40;;;1.60;;
63050;SDS011;49136;47.416;19.402;2023-04-15T08:34:50;6.13;;;1.73;;
63050;SDS011;49136;47.416;19.402;2023-04-15T08:37:17;3.58;;;1.00;;
63050;SDS011;49136;47.416;19.402;2023-04-15T08:39:42;2.83;;;1.10;;
63050;SDS011;49136;47.416;19.402;2023-04-15T08:42:15;1.63;;;1.20;;
63050;SDS011;49136;47.416;19.402;2023-04-15T08:44:42;1.63;;;0.70;;
63050;SDS011;49136;47.416;19.402;2023-04-15T08:47:12;1.70;;;0.90;;
63050;SDS011;49136;47.416;19.402;2023-04-15T08:49:39;1.23;;;0.65;;
63050;SDS011;49136;47.416;19.402;2023-04-15T08:52:07;3.10;;;1.08;;
63050;SDS011;49136;47.416;19.402;2023-04-15T08:54:33;1.10;;;0.82;;
63050;SDS011;49136;47.416;19.402;2023-04-15T08:57:00;1.63;;;1.10;;
63050;SDS011;49136;47.416;19.402;2023-04-15T08:59:26;1.45;;;0.80;;
63050;SDS011;49136;47.416;19.402;2023-04-15T09:01:54;0.90;;;0.70;;
63050;SDS011;49136;47.416;19.402;2023-04-15T09:04:21;1.65;;;0.90;;
63050;SDS011;49136;47.416;19.402;2023-04-15T09:06:46;2.15;;;1.27;;
63050;SDS011;49136;47.416;19.402;2023-04-15T09:09:12;1.92;;;1.05;;
63050;SDS011;49136;47.416;19.402;2023-04-15T09:11:38;1.25;;;0.95;;
63050;SDS011;49136;47.416;19.402;2023-04-15T09:14:04;1.67;;;1.02;;
63050;SDS011;49136;47.416;19.402;2023-04-15T09:16:30;0.80;;;0.77;;
63050;SDS011;49136;47.416;19.402;2023-04-15T09:18:55;8.50;;;1.95;;
63050;SDS011;49136;47.416;19.402;2023-04-15T09:21:21;10.80;;;1.48;;
63050;SDS011;49136;47.416;19.402;2023-04-15T09:23:57;1.88;;;1.00;;
63050;SDS011;49136;47.416;19.402;2023-04-15T09:26:34;1.33;;;1.10;;
63050;SDS011;49136;47.416;19.402;2023-04-15T09:29:07;3.22;;;0.95;;
63050;SDS011;49136;47.416;19.402;2023-04-15T09:31:34;1.30;;;0.93;;
63050;SDS011;49136;47.416;19.402;2023-04-15T09:34:01;2.95;;;1.13;;
63050;SDS011;49136;47.416;19.402;2023-04-15T09:36:26;1.15;;;0.73;;
63050;SDS011;49136;47.416;19.402;2023-04-15T09:38:55;1.02;;;0.60;;
63050;SDS011;49136;47.416;19.402;2023-04-15T09:41:22;0.88;;;0.88;;
63050;SDS011;49136;47.416;19.402;2023-04-15T09:43:48;1.58;;;0.82;;
63050;SDS011;49136;47.416;19.402;2023-04-15T09:46:14;0.85;;;0.73;;
63050;SDS011;49136;47.416;19.402;2023-04-15T09:48:40;0.60;;;0.60;;
63050;SDS011;49136;47.416;19.402;2023-04-15T09:51:05;0.63;;;0.63;;
63050;SDS011;49136;47.416;19.402;2023-04-15T09:53:32;1.83;;;1.23;;
63050;SDS011;49136;47.416;19.402;2023-04-15T09:55:59;1.17;;;0.73;;
63050;SDS011;49136;47.416;19.402;2023-04-15T09:58:33;0.77;;;0.77;;
63050;SDS011;49136;47.416;19.402;2023-04-15T10:00:59;2.55;;;1.10;;
63050;SDS011;49136;47.416;19.402;2023-04-15T10:03:28;1.00;;;0.82;;
63050;SDS011;49136;47.416;19.402;2023-04-15T10:05:55;0.95;;;0.73;;
63050;SDS011;49136;47.416;19.402;2023-04-15T10:08:23;1.17;;;0.90;;
63050;SDS011;49136;47.416;19.402;2023-04-15T10:10:51;1.75;;;0.70;;
63050;SDS011;49136;47.416;19.402;2023-04-15T10:13:18;0.90;;;0.73;;
63050;SDS011;49136;47.416;19.402;2023-04-15T10:15:53;1.75;;;0.82;;
63050;SDS011;49136;47.416;19.402;2023-04-15T10:18:20;2.85;;;1.38;;
63050;SDS011;49136;47.416;19.402;2023-04-15T10:20:49;1.42;;;0.90;;
63050;SDS011;49136;47.416;19.402;2023-04-15T10:23:15;1.10;;;0.80;;
63050;SDS011;49136;47.416;19.402;2023-04-15T10:25:42;1.58;;;1.13;;
63050;SDS011;49136;47.416;19.402;2023-04-15T10:28:11;1.25;;;0.75;;
63050;SDS011;49136;47.416;19.402;2023-04-15T10:30:38;2.13;;;0.82;;
63050;SDS011;49136;47.416;19.402;2023-04-15T10:33:04;1.67;;;1.17;;
63050;SDS011;49136;47.416;19.402;2023-04-15T10:35:31;1.67;;;1.00;;
63050;SDS011;49136;47.416;19.402;2023-04-15T10:37:58;1.58;;;0.60;;
63050;SDS011;49136;47.416;19.402;2023-04-15T10:40:32;1.17;;;0.60;;
63050;SDS011;49136;47.416;19.402;2023-04-15T10:43:01;1.95;;;0.95;;
63050;SDS011;49136;47.416;19.402;2023-04-15T10:45:30;1.15;;;0.90;;
63050;SDS011;49136;47.416;19.402;2023-04-15T10:48:00;1.75;;;1.17;;
63050;SDS011;49136;47.416;19.402;2023-04-15T10:50:27;1.02;;;0.63;;
63050;SDS011;49136;47.416;19.402;2023-04-15T10:52:54;1.95;;;0.93;;
63050;SDS011;49136;47.416;19.402;2023-04-15T10:55:25;2.25;;;0.98;;
63050;SDS011;49136;47.416;19.402;2023-04-15T10:57:57;0.57;;;0.57;;
63050;SDS011;49136;47.416;19.402;2023-04-15T11:00:25;0.98;;;0.63;;
63050;SDS011;49136;47.416;19.402;2023-04-15T11:08:06;1.15;;;0.80;;
63050;SDS011;49136;47.416;19.402;2023-04-15T11:13:05;1.33;;;0.60;;
63050;SDS011;49136;47.416;19.402;2023-04-15T11:15:41;0.90;;;0.55;;
63050;SDS011;49136;47.416;19.402;2023-04-15T11:20:37;2.38;;;0.70;;
63050;SDS011;49136;47.416;19.402;2023-04-15T11:23:04;0.93;;;0.65;;
63050;SDS011;49136;47.416;19.402;2023-04-15T11:25:31;0.80;;;0.65;;
63050;SDS011;49136;47.416;19.402;2023-04-15T11:27:59;1.20;;;0.70;;
63050;SDS011;49136;47.416;19.402;2023-04-15T11:30:27;0.38;;;0.38;;
63050;SDS011;49136;47.416;19.402;2023-04-15T11:32:54;1.60;;;0.93;;
63050;SDS011;49136;47.416;19.402;2023-04-15T11:35:22;1.38;;;1.10;;
63050;SDS011;49136;47.416;19.402;2023-04-15T11:37:48;2.85;;;2.20;;
63050;SDS011;49136;47.416;19.402;2023-04-15T11:40:14;1.50;;;0.63;;
63050;SDS011;49136;47.416;19.402;2023-04-15T11:42:41;0.73;;;0.60;;
63050;SDS011;49136;47.416;19.402;2023-04-15T11:45:13;0.50;;;0.50;;
63050;SDS011;49136;47.416;19.402;2023-04-15T11:47:40;1.77;;;0.77;;
63050;SDS011;49136;47.416;19.402;2023-04-15T11:50:16;2.78;;;1.33;;
63050;SDS011;49136;47.416;19.402;2023-04-15T11:52:55;1.33;;;0.90;;
63050;SDS011;49136;47.416;19.402;2023-04-15T11:55:22;1.33;;;0.63;;
63050;SDS011;49136;47.416;19.402;2023-04-15T12:00:34;0.57;;;0.40;;
63050;SDS011;49136;47.416;19.402;2023-04-15T12:03:19;0.90;;;0.57;;
63050;SDS011;49136;47.416;19.402;2023-04-15T12:08:47;0.77;;;0.70;;
63050;SDS011;49136;47.416;19.402;2023-04-15T12:14:01;1.55;;;0.70;;
63050;SDS011;49136;47.416;19.402;2023-04-15T12:16:47;1.20;;;0.57;;
63050;SDS011;49136;47.416;19.402;2023-04-15T12:19:15;4.88;;;0.70;;
63050;SDS011;49136;47.416;19.402;2023-04-15T12:21:48;1.20;;;0.57;;
63050;SDS011;49136;47.416;19.402;2023-04-15T12:24:14;0.98;;;0.52;;
63050;SDS011;49136;47.416;19.402;2023-04-15T12:26:47;1.13;;;0.68;;
63050;SDS011;49136;47.416;19.402;2023-04-15T12:31:48;0.47;;;0.47;;
63050;SDS011;49136;47.416;19.402;2023-04-15T12:34:30;0.63;;;0.50;;
63050;SDS011;49136;47.416;19.402;2023-04-15T12:36:58;1.05;;;0.55;;
63050;SDS011;49136;47.416;19.402;2023-04-15T12:39:25;1.17;;;0.73;;
63050;SDS011;49136;47.416;19.402;2023-04-15T12:41:52;2.05;;;0.63;;
63050;SDS011;49136;47.416;19.402;2023-04-15T12:44:18;1.05;;;0.57;;
63050;SDS011;49136;47.416;19.402;2023-04-15T12:46:45;0.55;;;0.40;;
63050;SDS011;49136;47.416;19.402;2023-04-15T12:49:10;0.43;;;0.40;;
63050;SDS011;49136;47.416;19.402;2023-04-15T12:51:38;1.08;;;0.75;;
63050;SDS011;49136;47.416;19.402;2023-04-15T12:54:04;1.63;;;0.88;;
63050;SDS011;49136;47.416;19.402;2023-04-15T12:56:29;1.42;;;0.70;;
63050;SDS011;49136;47.416;19.402;2023-04-15T12:58:55;4.88;;;0.50;;
63050;SDS011;49136;47.416;19.402;2023-04-15T13:01:20;0.73;;;0.52;;
63050;SDS011;49136;47.416;19.402;2023-04-15T13:03:45;1.52;;;0.80;;
63050;SDS011;49136;47.416;19.402;2023-04-15T13:06:12;0.55;;;0.40;;
63050;SDS011;49136;47.416;19.402;2023-04-15T13:08:37;1.00;;;0.70;;
63050;SDS011;49136;47.416;19.402;2023-04-15T13:11:03;0.77;;;0.57;;
63050;SDS011;49136;47.416;19.402;2023-04-15T13:13:28;1.67;;;0.93;;
63050;SDS011;49136;47.416;19.402;2023-04-15T13:15:55;2.25;;;1.25;;
63050;SDS011;49136;47.416;19.402;2023-04-15T13:18:21;1.25;;;0.60;;
63050;SDS011;49136;47.416;19.402;2023-04-15T13:20:47;1.00;;;0.90;;
63050;SDS011;49136;47.416;19.402;2023-04-15T13:23:13;1.13;;;1.05;;
63050;SDS011;49136;47.416;19.402;2023-04-15T13:25:39;3.17;;;1.00;;
63050;SDS011;49136;47.416;19.402;2023-04-15T13:28:05;2.33;;;1.20;;
63050;SDS011;49136;47.416;19.402;2023-04-15T13:30:30;1.48;;;0.90;;
63050;SDS011;49136;47.416;19.402;2023-04-15T13:32:56;1.00;;;0.70;;
63050;SDS011;49136;47.416;19.402;2023-04-15T13:35:21;1.58;;;0.70;;
63050;SDS011;49136;47.416;19.402;2023-04-15T13:37:47;4.90;;;1.10;;
63050;SDS011;49136;47.416;19.402;2023-04-15T13:40:12;1.58;;;1.00;;
63050;SDS011;49136;47.416;19.402;2023-04-15T13:42:38;0.80;;;0.70;;
63050;SDS011;49136;47.416;19.402;2023-04-15T13:45:03;1.08;;;0.85;;
63050;SDS011;49136;47.416;19.402;2023-04-15T13:47:29;1.40;;;1.00;;
63050;SDS011;49136;47.416;19.402;2023-04-15T13:49:55;0.77;;;0.73;;
63050;SDS011;49136;47.416;19.402;2023-04-15T13:52:21;1.27;;;1.02;;
63050;SDS011;49136;47.416;19.402;2023-04-15T13:54:47;2.03;;;1.00;;
63050;SDS011;49136;47.416;19.402;2023-04-15T13:57:12;4.95;;;1.33;;
63050;SDS011;49136;47.416;19.402;2023-04-15T13:59:38;3.15;;;1.40;;
63050;SDS011;49136;47.416;19.402;2023-04-15T14:02:04;8.65;;;1.75;;
63050;SDS011;49136;47.416;19.402;2023-04-15T14:04:30;2.30;;;1.42;;
63050;SDS011;49136;47.416;19.402;2023-04-15T14:06:55;3.60;;;1.40;;
63050;SDS011;49136;47.416;19.402;2023-04-15T14:09:21;2.67;;;1.20;;
63050;SDS011;49136;47.416;19.402;2023-04-15T14:11:48;2.83;;;1.30;;
63050;SDS011;49136;47.416;19.402;2023-04-15T14:14:14;3.10;;;1.88;;
63050;SDS011;49136;47.416;19.402;2023-04-15T14:16:39;2.63;;;1.88;;
63050;SDS011;49136;47.416;19.402;2023-04-15T14:19:05;4.22;;;2.00;;
63050;SDS011;49136;47.416;19.402;2023-04-15T14:21:30;4.50;;;1.90;;
63050;SDS011;49136;47.416;19.402;2023-04-15T14:23:56;5.13;;;2.47;;
63050;SDS011;49136;47.416;19.402;2023-04-15T14:26:22;3.00;;;1.95;;
63050;SDS011;49136;47.416;19.402;2023-04-15T14:28:48;6.13;;;2.30;;
63050;SDS011;49136;47.416;19.402;2023-04-15T14:31:13;13.88;;;5.43;;
63050;SDS011;49136;47.416;19.402;2023-04-15T14:33:39;10.52;;;5.70;;
63050;SDS011;49136;47.416;19.402;2023-04-15T14:36:05;5.20;;;1.90;;
63050;SDS011;49136;47.416;19.402;2023-04-15T14:38:35;3.55;;;2.00;;
63050;SDS011;49136;47.416;19.402;2023-04-15T14:41:06;2.45;;;1.42;;
63050;SDS011;49136;47.416;19.402;2023-04-15T14:43:35;3.42;;;1.33;;
63050;SDS011;49136;47.416;19.402;2023-04-15T14:46:00;2.63;;;1.40;;